createdAt,value
2022-11-28T08:47:13.557Z,5.25
2022-11-28T08:49:40.308Z,5.26
2022-11-28T08:52:07.135Z,5.28
2022-11-28T08:54:33.885Z,5.37
2022-11-28T08:57:01.410Z,5.42
2022-11-28T08:59:28.292Z,5.52
2022-11-28T09:01:55.263Z,5.61
2022-11-28T09:04:22.397Z,5.64
2022-11-28T09:06:49.148Z,5.64
2022-11-28T09:09:15.790Z,5.69
2022-11-28T09:11:42.479Z,5.75
2022-11-28T09:14:09.105Z,5.89
2022-11-28T09:16:35.723Z,5.89
2022-11-28T09:19:02.402Z,6.08
2022-11-28T09:21:29.037Z,6.12
2022-11-28T09:23:56.293Z,6.15
2022-11-28T09:26:24.604Z,6.28
2022-11-28T09:28:51.380Z,6.41
2022-11-28T09:31:18.899Z,6.46
2022-11-28T09:33:46.336Z,6.54
2022-11-28T09:36:21.065Z,6.70
2022-11-28T09:38:47.736Z,6.85
2022-11-28T09:41:29.499Z,6.90
2022-11-28T09:44:00.597Z,7.06
2022-11-28T09:46:33.305Z,7.21
2022-11-28T09:49:03.735Z,7.33
2022-11-28T09:51:41.952Z,7.43
2022-11-28T09:54:17.274Z,7.40
2022-11-28T09:56:47.646Z,7.38
2022-11-28T09:59:26.404Z,7.31
2022-11-28T10:02:12.316Z,7.27
2022-11-28T10:04:44.923Z,7.18
2022-11-28T10:07:29.871Z,7.17
2022-11-28T10:10:15.188Z,7.24
2022-11-28T10:12:59.058Z,7.18
2022-11-28T10:15:40.849Z,7.24
2022-11-28T10:18:32.396Z,7.07
2022-11-28T10:21:03.080Z,7.00
2022-11-28T10:23:40.929Z,6.90
2022-11-28T10:26:08.276Z,6.90
2022-11-28T10:28:37.110Z,6.90
2022-11-28T10:31:13.557Z,6.82
2022-11-28T10:33:45.160Z,6.82
2022-11-28T10:36:24.787Z,6.93
2022-11-28T10:38:51.423Z,7.03
2022-11-28T10:41:28.843Z,7.11
2022-11-28T10:44:19.946Z,7.23
2022-11-28T10:47:15.527Z,7.12
2022-11-28T10:49:56.838Z,7.19
2022-11-28T10:52:35.353Z,7.27
2022-11-28T10:55:18.483Z,7.17
2022-11-28T10:58:06.471Z,7.26
2022-11-28T11:00:36.261Z,7.19
2022-11-28T11:03:18.429Z,7.33
2022-11-28T11:05:45.410Z,7.37
2022-11-28T11:08:26.434Z,7.47
2022-11-28T11:11:06.387Z,7.51
2022-11-28T11:13:36.376Z,7.57
2022-11-28T11:16:06.333Z,7.65
2022-11-28T11:18:38.500Z,7.67
2022-11-28T11:21:19.184Z,7.69
2022-11-28T11:23:47.037Z,7.75
2022-11-28T11:26:28.418Z,7.73
2022-11-28T11:28:55.282Z,7.77
2022-11-28T11:31:24.016Z,7.50
2022-11-28T11:33:53.875Z,7.35
2022-11-28T11:36:24.087Z,7.56
2022-11-28T11:38:51.189Z,7.55
2022-11-28T11:41:29.591Z,7.51
2022-11-28T11:43:57.327Z,7.59
2022-11-28T11:46:24.006Z,7.58
2022-11-28T11:48:52.678Z,7.66
2022-11-28T11:51:25.130Z,7.74
2022-11-28T11:54:01.110Z,7.80
2022-11-28T11:56:30.390Z,7.88
2022-11-28T11:58:58.281Z,7.84
2022-11-28T12:01:26.406Z,7.87
2022-11-28T12:03:57.079Z,7.82
2022-11-28T12:06:28.604Z,7.79
2022-11-28T12:09:08.556Z,7.63
2022-11-28T12:11:47.126Z,7.64
2022-11-28T12:14:24.447Z,7.52
2022-11-28T12:17:32.657Z,7.51
2022-11-28T12:20:23.372Z,7.31
2022-11-28T12:23:03.201Z,7.50
2022-11-28T12:26:00.803Z,7.54
2022-11-28T12:29:11.703Z,7.50
2022-11-28T12:31:47.215Z,7.47
2022-11-28T12:34:26.579Z,7.53
2022-11-28T12:37:02.303Z,7.44
2022-11-28T12:39:44.302Z,7.19
2022-11-28T12:42:16.662Z,7.14
2022-11-28T12:45:04.224Z,7.21
2022-11-28T12:47:49.679Z,7.08
2022-11-28T12:50:35.712Z,7.06
2022-11-28T12:53:34.840Z,6.79
2022-11-28T12:56:49.766Z,6.94
2022-11-28T12:59:53.565Z,6.88
2022-11-28T13:02:44.405Z,6.86
2022-11-28T13:05:25.848Z,6.82
2022-11-28T13:08:27.934Z,6.77
2022-11-28T13:11:38.060Z,6.77
2022-11-28T13:14:04.599Z,6.86
2022-11-28T13:16:45.606Z,6.71
2022-11-28T13:19:22.323Z,6.75
2022-11-28T13:22:04.489Z,6.81
2022-11-28T13:24:40.178Z,6.61
2022-11-28T13:27:24.156Z,6.58
2022-11-28T13:29:58.725Z,6.55
2022-11-28T13:32:43.767Z,6.57
2022-11-28T13:35:13.752Z,6.44
2022-11-28T13:40:41.180Z,6.33
2022-11-28T13:43:10.615Z,6.19
2022-11-28T13:45:46.653Z,6.20
2022-11-28T13:49:13.379Z,6.19
2022-11-28T13:51:30.192Z,5.99
2022-11-28T13:54:20.233Z,5.93
2022-11-28T13:57:08.564Z,5.86
2022-11-28T13:59:35.812Z,5.85
2022-11-28T14:02:05.529Z,5.74
2022-11-28T14:04:32.993Z,5.79
2022-11-28T14:07:03.513Z,5.67
2022-11-28T14:10:15.212Z,5.68
2022-11-28T14:12:56.051Z,5.63
2022-11-28T14:15:39.971Z,5.57
2022-11-28T14:18:31.527Z,5.58
2022-11-28T14:21:04.663Z,5.35
2022-11-28T14:23:46.571Z,5.32
2022-11-28T14:26:23.476Z,5.16
2022-11-28T14:28:51.824Z,5.20
2022-11-28T14:31:32.892Z,5.11
2022-11-28T14:34:02.649Z,4.93
2022-11-28T14:36:35.932Z,4.80
2022-11-28T14:39:16.298Z,4.85
2022-11-28T14:42:02.462Z,4.74
2022-11-28T14:44:47.679Z,4.60
2022-11-28T14:47:21.464Z,4.58
2022-11-28T14:49:48.727Z,4.52
2022-11-28T14:52:38.632Z,4.41
2022-11-28T14:55:10.321Z,4.31
2022-11-28T14:57:53.971Z,4.30
2022-11-28T15:00:25.129Z,4.29
2022-11-28T15:03:13.525Z,4.23
2022-11-28T15:05:54.303Z,4.11
2022-11-28T15:09:01.995Z,4.11
2022-11-28T15:11:33.757Z,4.04
2022-11-28T15:14:10.147Z,4.03
2022-11-28T15:16:46.614Z,4.04
2022-11-28T15:19:34.494Z,3.97
2022-11-28T15:22:02.828Z,3.98
2022-11-28T15:24:31.569Z,3.94
2022-11-28T15:27:18.944Z,3.94
2022-11-28T15:29:53.937Z,3.90
2022-11-28T15:32:20.808Z,3.79
2022-11-28T15:35:02.052Z,3.71
2022-11-28T15:37:31.433Z,3.80
2022-11-28T15:39:59.310Z,3.82
2022-11-28T15:42:31.300Z,3.70
2022-11-28T15:45:08.716Z,3.71
2022-11-28T15:47:35.630Z,3.61
2022-11-28T15:50:17.144Z,3.62
2022-11-28T15:53:04.165Z,3.57
2022-11-28T15:55:33.124Z,3.64
2022-11-28T15:58:21.064Z,3.54
2022-11-28T16:00:55.683Z,3.53
2022-11-28T16:03:25.179Z,3.44
2022-11-28T16:05:53.166Z,3.36
2022-11-28T16:08:37.108Z,3.35
2022-11-28T16:11:05.781Z,3.27
2022-11-28T16:13:33.969Z,3.29
2022-11-28T16:16:04.411Z,3.25
2022-11-28T16:18:31.499Z,3.21
2022-11-28T16:21:00.288Z,3.13
2022-11-28T16:23:33.838Z,3.24
2022-11-28T16:26:01.263Z,3.21
2022-11-28T16:28:31.249Z,3.20
2022-11-28T16:30:58.030Z,3.17
2022-11-28T16:33:42.250Z,3.15
2022-11-28T16:36:17.008Z,3.07
2022-11-28T16:38:44.365Z,3.15
2022-11-28T16:41:20.979Z,3.10
2022-11-28T16:43:50.136Z,3.07
2022-11-28T16:46:24.549Z,3.15
2022-11-28T16:48:59.074Z,3.17
2022-11-28T16:51:25.719Z,3.19
2022-11-28T16:53:55.168Z,3.25
2022-11-28T16:56:30.569Z,3.24
2022-11-28T16:59:11.723Z,3.21
2022-11-28T17:01:38.612Z,3.29
2022-11-28T17:04:05.679Z,3.30
2022-11-28T17:06:34.421Z,3.39
2022-11-28T17:09:01.761Z,3.38
2022-11-28T17:11:30.237Z,3.29
2022-11-28T17:13:57.803Z,3.30
2022-11-28T17:16:29.695Z,3.37
2022-11-28T17:25:02.098Z,3.32
2022-11-28T17:27:28.789Z,3.38
2022-11-28T17:29:55.477Z,3.35
2022-11-28T17:49:57.689Z,3.30
2022-11-28T17:52:30.227Z,3.35
2022-11-28T17:55:06.841Z,3.41
2022-11-28T17:57:35.290Z,3.42
2022-11-28T18:00:05.147Z,3.35
2022-11-28T18:02:40.926Z,3.35
2022-11-28T18:05:09.084Z,3.45
2022-11-28T18:07:39.672Z,3.38
2022-11-28T18:52:58.705Z,3.45
2022-11-28T18:55:26.006Z,3.45
2022-11-28T18:57:52.604Z,3.42
2022-11-28T19:00:20.004Z,3.41
2022-11-28T19:02:48.262Z,3.41
2022-11-28T19:05:14.932Z,3.48
2022-11-28T19:07:41.748Z,3.42
2022-11-28T19:10:09.119Z,3.41
2022-11-28T19:12:36.900Z,3.31
2022-11-28T19:15:03.976Z,3.42
2022-11-28T19:17:30.942Z,3.47
2022-11-28T19:19:57.596Z,3.44
2022-11-28T19:22:24.239Z,3.37
2022-11-28T19:24:50.796Z,3.33
2022-11-28T19:27:17.439Z,3.24
2022-11-28T19:29:44.423Z,3.30
2022-11-28T19:32:12.581Z,3.47
2022-11-28T19:34:39.147Z,3.39
2022-11-28T19:37:05.736Z,3.30
2022-11-28T19:39:32.467Z,3.35
2022-11-28T19:41:59.724Z,3.30
2022-11-28T19:44:28.997Z,3.35
2022-11-28T19:46:56.293Z,3.35
2022-11-28T19:49:23.820Z,3.29
2022-11-28T19:51:50.989Z,3.32
2022-11-28T19:54:19.774Z,3.25
2022-11-28T19:56:47.842Z,3.36
2022-11-28T19:59:14.572Z,3.22
2022-11-28T20:01:41.248Z,3.30
2022-11-28T20:04:08.322Z,3.38
2022-11-28T20:06:35.304Z,3.36
2022-11-28T20:09:06.350Z,3.28
2022-11-28T20:11:34.492Z,3.27
2022-11-28T20:14:06.948Z,3.18
2022-11-28T20:16:35.802Z,3.17
2022-11-28T20:19:04.242Z,3.17
2022-11-28T20:21:31.837Z,3.27
2022-11-28T20:24:04.443Z,3.25
2022-11-28T20:26:39.929Z,3.21
2022-11-28T20:29:07.557Z,3.21
2022-11-28T20:31:41.943Z,3.19
2022-11-28T20:34:08.942Z,3.12
2022-11-28T20:36:36.310Z,3.10
2022-11-28T20:39:05.005Z,3.18
2022-11-28T20:41:31.828Z,3.07
2022-11-28T20:44:00.664Z,3.10
2022-11-28T20:46:30.365Z,3.06
2022-11-28T20:48:58.814Z,3.04
2022-11-28T20:51:29.892Z,3.08
2022-11-28T20:53:57.908Z,3.08
2022-11-28T20:56:27.823Z,3.10
2022-11-28T20:58:54.436Z,3.10
2022-11-28T21:01:23.837Z,3.12
2022-11-28T21:03:50.840Z,3.14
2022-11-28T21:06:17.812Z,3.09
2022-11-28T21:08:44.624Z,3.07
2022-11-28T21:11:30.586Z,3.00
2022-11-28T21:14:01.054Z,3.07
2022-11-28T21:16:29.450Z,3.07
2022-11-28T21:18:57.340Z,3.11
2022-11-28T21:21:29.294Z,3.00
2022-11-28T21:23:57.544Z,3.05
2022-11-28T21:26:30.159Z,3.16
2022-11-28T21:28:59.925Z,3.09
2022-11-28T21:31:30.697Z,3.07
2022-11-28T21:33:59.066Z,2.98
2022-11-28T21:36:27.097Z,3.01
2022-11-28T21:38:55.980Z,3.00
2022-11-28T21:41:23.815Z,2.91
2022-11-28T21:43:50.471Z,2.91
2022-11-28T21:46:17.476Z,2.89
2022-11-28T21:48:44.458Z,2.87
2022-11-28T21:51:37.456Z,2.93
2022-11-28T21:54:04.344Z,2.89
2022-11-28T21:56:32.072Z,2.88
2022-11-28T23:20:40.787Z,2.57
2022-11-28T23:23:07.416Z,2.55
2022-11-28T23:25:35.858Z,2.55
2022-11-28T23:28:02.968Z,2.56
2022-11-28T23:30:29.553Z,2.56
2022-11-28T23:32:56.216Z,2.59
2022-11-28T23:35:22.894Z,2.60
2022-11-28T23:37:49.970Z,2.56
2022-11-28T23:40:16.667Z,2.65
2022-11-28T23:42:43.444Z,2.58
2022-11-28T23:45:10.999Z,2.60
2022-11-28T23:47:38.126Z,2.57
2022-11-28T23:50:05.935Z,2.66
2022-11-28T23:52:32.869Z,2.63
2022-11-28T23:54:59.833Z,2.56
2022-11-28T23:57:26.461Z,2.55
2022-11-28T23:59:53.102Z,2.60
